Stations météo

réclame
Mon MeteoGroup
Siracusa, Italie (16464): Température de l'air & dewpoint: 21.04.2018 08:00:00 - 27.04.2018 08:00:00 (CEST)Siracusa, Italie (16464): Vitesse du vent: 21.04.2018 08:00:00 - 27.04.2018 08:00:00 (CEST)Siracusa, Italie (16464): Direction du vent: 21.04.2018 08:00:00 - 27.04.2018 08:00:00 (CEST)Siracusa, Italie (16464): reduced air pressure: 21.04.2018 08:00:00 - 27.04.2018 08:00:00 (CEST)Siracusa, Italie (16464): Quantités de précipitations: 21.04.2018 08:00:00 - 27.04.2018 08:00:00 (CEST)
Date & Time tt [°C] td [°C] ff [km/h] ff [knt] dd ppp [hPa] rr [mm]
27.04.2018 08:00:00 - - - - - - -
27.04.2018 07:00:00 16,8 14,4 11 6 N 1011,2 -
27.04.2018 06:00:00 13,0 6,7 4 2 W 1012,0 -
27.04.2018 05:00:00 14,5 8,6 4 2 NW 1011,6 -
27.04.2018 04:00:00 15,4 9,9 4 2 WNW 1011,8 -
27.04.2018 03:00:00 14,4 8,5 4 2 SSW 1012,2 -
27.04.2018 02:00:00 14,4 8,7 5 3 W 1012,1 0,0
27.04.2018 01:00:00 15,2 11,0 4 2 W 1012,6 -
27.04.2018 00:00:00 16,9 13,0 2 1 WSW 1012,4 -
26.04.2018 23:00:00 17,6 14,2 2 1 WSW 1012,8 -
26.04.2018 22:00:00 18,2 15,0 0 0 N 1013,1 -
26.04.2018 21:00:00 19,1 15,1 8 4 S 1012,7 -
26.04.2018 20:00:00 19,8 14,3 13 7 SSE 1012,4 0,0
26.04.2018 19:00:00 20,4 14,4 9 5 S 1012,3 -
26.04.2018 18:00:00 21,0 14,3 9 5 SSW 1012,5 -
26.04.2018 17:00:00 22,1 12,6 16 9 SW 1012,7 -
26.04.2018 16:00:00 22,7 12,6 15 8 SSW 1013,3 -
26.04.2018 15:00:00 22,9 11,9 15 8 SSW 1013,7 -
26.04.2018 14:00:00 22,1 13,1 18 10 SW 1014,1 0,0
26.04.2018 13:00:00 21,7 13,0 15 8 SW 1014,6 -
26.04.2018 12:00:00 22,2 12,1 11 6 SSE 1014,9 -
26.04.2018 11:00:00 20,8 13,7 5 3 SSE 1015,2 -
26.04.2018 10:00:00 19,1 13,4 4 2 S 1015,2 -
26.04.2018 09:00:00 17,4 10,7 4 2 SSW 1015,6 -
26.04.2018 08:00:00 15,7 9,1 2 1 WNW 1015,2 0,0
26.04.2018 07:00:00 13,0 4,9 0 0 N 1015,3 -
26.04.2018 06:00:00 12,2 3,8 5 3 NW 1015,5 -
26.04.2018 05:00:00 12,3 4,2 4 2 NNW 1015,8 -
26.04.2018 04:00:00 12,4 3,8 4 2 NNW 1015,9 -
26.04.2018 03:00:00 13,2 5,0 2 1 N 1016,4 -
26.04.2018 02:00:00 14,1 5,9 5 3 NNW 1016,8 0,0
26.04.2018 01:00:00 14,5 6,3 2 1 NNW 1017,3 -
26.04.2018 00:00:00 16,8 7,9 2 1 NNW 1017,5 -
25.04.2018 23:00:00 19,4 12,4 2 1 SSW 1017,5 -
25.04.2018 22:00:00 19,6 8,8 2 1 NNE 1017,5 -
25.04.2018 21:00:00 20,7 10,1 13 7 W - -
25.04.2018 20:00:00 21,6 - 22 12 WSW 1016,3 0,0
25.04.2018 19:00:00 22,0 13,3 24 13 SW 1016,2 -
25.04.2018 18:00:00 22,7 13,4 26 14 WNW 1016,4 -
25.04.2018 17:00:00 23,1 12,4 26 14 W 1016,6 -
25.04.2018 16:00:00 23,6 11,6 28 15 NNE 1017,2 -
25.04.2018 15:00:00 23,2 14,1 18 10 SW 1018,0 -
25.04.2018 14:00:00 23,0 14,7 9 5 ESE 1018,5 0,0
25.04.2018 13:00:00 22,9 14,9 8 4 ESE 1019,1 -
25.04.2018 12:00:00 20,5 14,5 9 5 ENE 1019,4 -
25.04.2018 11:00:00 20,0 14,5 8 4 ENE 1019,3 -
25.04.2018 10:00:00 20,2 13,1 4 2 E 1019,4 -
25.04.2018 09:00:00 18,0 11,3 4 2 SE 1019,3 -
25.04.2018 08:00:00 15,1 8,7 2 1 ESE 1019,0 0,0
25.04.2018 07:00:00 12,9 7,1 0 0 N 1018,7 -
25.04.2018 06:00:00 12,9 6,6 0 0 N 1018,3 -
25.04.2018 05:00:00 13,8 7,7 0 0 N 1018,4 -
25.04.2018 04:00:00 13,8 7,3 2 1 W 1018,8 -
25.04.2018 03:00:00 14,0 7,9 4 2 W 1018,7 -
25.04.2018 02:00:00 14,6 8,7 4 2 W 1019,0 0,0
25.04.2018 01:00:00 15,0 8,6 4 2 W 1019,6 -
25.04.2018 00:00:00 17,2 11,6 0 0 N 1019,6 -
24.04.2018 23:00:00 19,0 13,1 4 2 W 1019,8 -
24.04.2018 22:00:00 19,5 12,9 0 0 N 1019,4 -
24.04.2018 21:00:00 20,5 13,4 2 1 NNE 1019,0 -
24.04.2018 20:00:00 21,3 - 4 2 ESE 1018,8 0,0
24.04.2018 19:00:00 23,2 11,9 8 4 SSW 1018,4 -
24.04.2018 18:00:00 23,6 13,7 15 8 WSW 1018,6 -
24.04.2018 17:00:00 23,5 16,2 11 6 SSE 1018,8 -
24.04.2018 16:00:00 23,1 17,0 11 6 S 1019,3 -
24.04.2018 15:00:00 22,7 16,2 11 6 SSW 1019,7 -
24.04.2018 14:00:00 23,1 12,7 9 5 ESE 1020,1 0,0
24.04.2018 13:00:00 23,2 11,5 8 4 ESE 1020,2 -
24.04.2018 12:00:00 23,1 9,8 8 4 E 1020,6 -
24.04.2018 11:00:00 22,7 10,8 5 3 SE 1020,5 -
24.04.2018 10:00:00 19,7 12,7 5 3 S 1020,3 -
24.04.2018 09:00:00 17,1 12,4 2 1 S 1020,1 -
24.04.2018 08:00:00 15,1 11,6 0 0 N 1019,8 0,0
24.04.2018 07:00:00 12,3 7,9 0 0 N 1019,0 -
24.04.2018 06:00:00 12,5 8,1 0 0 N 1018,7 -
24.04.2018 05:00:00 12,8 8,2 2 1 WNW 1018,5 -
24.04.2018 04:00:00 13,4 8,6 4 2 WNW 1018,5 -
24.04.2018 03:00:00 13,9 8,3 5 3 W 1018,6 -
24.04.2018 02:00:00 16,8 12,5 4 2 NNW 1018,9 0,0
24.04.2018 01:00:00 15,7 10,6 2 1 W 1019,3 -
24.04.2018 00:00:00 16,4 10,9 4 2 WNW 1019,3 -
23.04.2018 23:00:00 16,6 10,2 2 1 WNW 1019,2 -
23.04.2018 22:00:00 18,4 11,9 0 0 N 1019,1 -
23.04.2018 21:00:00 19,6 12,8 2 1 SW 1018,7 -
23.04.2018 20:00:00 20,0 14,7 5 3 S 1018,3 0,0
23.04.2018 19:00:00 21,0 14,6 9 5 SSE 1018,3 -
23.04.2018 18:00:00 21,6 14,2 9 5 SE 1018,2 -
23.04.2018 17:00:00 21,5 11,5 8 4 NE 1018,1 -
23.04.2018 16:00:00 22,5 12,4 9 5 NE 1018,5 -
23.04.2018 15:00:00 22,6 11,9 13 7 ENE 1018,8 -
23.04.2018 14:00:00 22,7 11,7 11 6 E 1019,1 0,0
23.04.2018 13:00:00 22,1 11,4 13 7 E 1019,5 -
23.04.2018 12:00:00 21,2 11,8 13 7 S 1019,6 -
23.04.2018 11:00:00 21,2 11,8 9 5 WSW 1019,7 -
23.04.2018 10:00:00 20,0 12,9 9 5 W 1019,4 -
23.04.2018 09:00:00 19,0 12,0 8 4 WSW 1019,4 -
23.04.2018 08:00:00 15,6 11,5 2 1 SE 1019,3 0,0
23.04.2018 07:00:00 12,5 8,3 4 2 WNW 1018,9 -
23.04.2018 06:00:00 11,4 6,7 2 1 SW 1018,7 -
23.04.2018 05:00:00 11,7 7,0 2 1 S 1018,6 -
23.04.2018 04:00:00 11,9 7,0 4 2 SSW 1018,8 -
23.04.2018 03:00:00 12,2 7,0 4 2 S 1019,0 -
23.04.2018 02:00:00 13,0 8,0 2 1 S 1019,1 0,0
23.04.2018 01:00:00 12,5 7,5 4 2 S 1019,6 -
23.04.2018 00:00:00 13,2 8,0 4 2 S 1019,9 -
22.04.2018 23:00:00 15,0 9,9 2 1 S 1019,8 -
22.04.2018 22:00:00 16,7 12,0 4 2 SSW 1019,7 -
22.04.2018 21:00:00 16,9 10,5 4 2 S 1019,4 -
22.04.2018 20:00:00 19,7 10,6 0 0 N 1018,6 0,0
22.04.2018 19:00:00 19,9 10,5 9 5 WNW 1018,5 -
22.04.2018 18:00:00 21,2 9,7 15 8 NW 1019,0 -
22.04.2018 17:00:00 19,9 15,3 4 2 S 1019,0 -
22.04.2018 16:00:00 19,8 15,2 9 5 SSE 1019,1 -
22.04.2018 15:00:00 19,6 14,8 8 4 SSE 1019,3 -
22.04.2018 14:00:00 19,3 14,5 8 4 SSE 1019,9 0,0
22.04.2018 13:00:00 19,2 14,6 8 4 ESE 1020,0 -
22.04.2018 12:00:00 18,7 13,9 11 6 ENE 1020,3 -
22.04.2018 11:00:00 19,2 12,8 11 6 NE 1020,2 -
22.04.2018 10:00:00 18,6 13,2 8 4 ENE 1020,2 -
22.04.2018 09:00:00 17,3 12,9 2 1 SW 1019,9 -
22.04.2018 08:00:00 14,2 10,8 4 2 W 1019,7 0,0
22.04.2018 07:00:00 12,7 8,3 2 1 W 1019,3 -
22.04.2018 06:00:00 13,4 9,4 2 1 WNW 1018,9 -
22.04.2018 05:00:00 13,4 8,8 2 1 W 1019,2 -
22.04.2018 04:00:00 14,7 9,9 2 1 WNW 1019,3 -
22.04.2018 03:00:00 16,6 12,3 2 1 SSW 1019,5 -
22.04.2018 02:00:00 16,8 12,3 2 1 W 1019,6 0,0
22.04.2018 01:00:00 17,4 13,4 8 4 NNW 1020,0 -
22.04.2018 00:00:00 16,9 13,2 4 2 N 1020,0 -
21.04.2018 23:00:00 17,5 13,7 4 2 W 1019,9 -
21.04.2018 22:00:00 18,4 14,8 4 2 SSW 1019,8 -
21.04.2018 21:00:00 18,8 14,8 2 1 W 1019,3 -
21.04.2018 20:00:00 19,8 15,2 5 3 S 1019,1 0,0
21.04.2018 19:00:00 19,9 15,5 11 6 SSE 1018,6 -
21.04.2018 18:00:00 20,9 14,2 15 8 SW 1018,7 -
21.04.2018 17:00:00 21,4 14,2 22 12 WSW 1018,8 -
21.04.2018 16:00:00 21,8 15,6 18 10 SW 1019,0 -
21.04.2018 15:00:00 21,8 15,3 18 10 WNW 1019,7 -
21.04.2018 14:00:00 22,4 14,7 11 6 E 1019,6 0,0
21.04.2018 13:00:00 21,2 12,0 9 5 NNE 1019,7 -
21.04.2018 12:00:00 21,5 11,8 8 4 NE 1019,8 -
21.04.2018 11:00:00 22,3 12,2 8 4 NNE 1019,6 -
21.04.2018 10:00:00 20,9 13,0 5 3 SE 1019,2 -
21.04.2018 09:00:00 19,2 14,8 2 1 SSW 1019,1 -
21.04.2018 08:00:00 14,9 10,7 4 2 W 1018,9 0,0

tt = Température de l'air
td = dewpoint
ff = Vitesse du vent
dd = Direction du vent
ppp = reduced air pressure
rr = Quantités de précipitations

stations d'obs. à proximité